Time;durP1;ratioP1;P1;durP2;ratioP2;P2;SDS_P1;SDS_P2;PMS_P1;PMS_P2;Temp;Humidity;BMP_temperature;BMP_pressure;BME280_temperature;BME280_humidity;BME280_pressure;Samples;Min_cycle;Max_cycle;Signal;HPM_P1;HPM_P2
2022/04/03 00:09:54;;;;;;;2.08;1.00;;;;;;;;;;20774929;28;20064;-80
2022/04/03 00:19:56;;;;;;;1.70;1.00;;;;;;;;;;20793186;28;20046;-74
2022/04/03 00:29:59;;;;;;;1.98;0.90;;;;;;;;;;20798957;28;20081;-78
2022/04/03 00:40:01;;;;;;;2.35;1.20;;;;;;;;;;20783245;28;20108;-77
2022/04/03 00:50:05;;;;;;;2.60;1.25;;;;;;;;;;20791976;28;20053;-77
2022/04/03 01:00:08;;;;;;;2.63;1.30;;;;;;;;;;20807727;28;20056;-77
2022/04/03 01:10:10;;;;;;;2.90;1.10;;;;;;;;;;20802537;28;20050;-78
2022/04/03 01:20:15;;;;;;;3.60;1.40;;;;;;;;;;20814883;28;20082;-74
2022/04/03 01:30:20;;;;;;;2.60;1.10;;;;;;;;;;20810582;28;20083;-77
2022/04/03 01:40:25;;;;;;;3.53;1.30;;;;;;;;;;20794554;28;20132;-76
2022/04/03 01:50:30;;;;;;;2.73;1.13;;;;;;;;;;20792784;28;20050;-77
2022/04/03 02:00:44;;;;;;;2.67;1.05;;;;;;;;;;20774073;28;20054;-64
2022/04/03 02:10:50;;;;;;;2.22;1.48;;;;;;;;;;20802839;28;20050;-69
2022/04/03 02:21:00;;;;;;;2.70;1.30;;;;;;;;;;20803881;28;20050;-76
2022/04/03 02:31:04;;;;;;;4.70;1.50;;;;;;;;;;20806109;28;20054;-78
2022/04/03 02:41:09;;;;;;;2.17;1.30;;;;;;;;;;20799129;28;20052;-78
2022/04/03 02:51:14;;;;;;;2.17;1.47;;;;;;;;;;20783101;28;20050;-78
2022/04/03 03:01:17;;;;;;;2.42;1.30;;;;;;;;;;20781821;28;20058;-67
2022/04/03 03:11:22;;;;;;;2.15;1.27;;;;;;;;;;20778022;28;20065;-76
2022/04/03 03:21:42;;;;;;;2.63;1.30;;;;;;;;;;20756480;28;20083;-66
2022/04/03 03:31:55;;;;;;;3.35;1.40;;;;;;;;;;20755529;28;20508;-64
2022/04/03 03:42:05;;;;;;;2.42;1.33;;;;;;;;;;20754447;28;20050;-78
2022/04/03 03:52:13;;;;;;;1.98;1.10;;;;;;;;;;20761338;28;20469;-77
2022/04/03 04:02:16;;;;;;;3.00;1.27;;;;;;;;;;20761610;28;20104;-77
2022/04/03 04:12:21;;;;;;;2.25;0.88;;;;;;;;;;20755003;28;20506;-77
2022/04/03 04:22:22;;;;;;;2.28;1.00;;;;;;;;;;20770387;28;20061;-76
2022/04/03 04:32:24;;;;;;;2.70;1.35;;;;;;;;;;20766270;28;20076;-77
2022/04/03 04:42:28;;;;;;;1.98;1.20;;;;;;;;;;20766210;28;20050;-65
2022/04/03 04:52:31;;;;;;;1.97;1.00;;;;;;;;;;20766489;28;20050;-78
2022/04/03 05:02:35;;;;;;;2.30;1.40;;;;;;;;;;20764393;28;20054;-76
2022/04/03 05:12:38;;;;;;;5.68;1.50;;;;;;;;;;20764815;28;20056;-77
2022/04/03 05:22:41;;;;;;;2.50;1.30;;;;;;;;;;20779591;28;20085;-67
2022/04/03 05:32:44;;;;;;;3.60;1.60;;;;;;;;;;20778205;28;20081;-72
2022/04/03 05:42:47;;;;;;;2.63;1.95;;;;;;;;;;20779205;28;20066;-70
2022/04/03 05:52:51;;;;;;;4.22;1.45;;;;;;;;;;20791895;28;20065;-72
2022/04/03 06:03:00;;;;;;;5.38;2.15;;;;;;;;;;20793614;28;20050;-76
2022/04/03 06:13:07;;;;;;;4.15;1.98;;;;;;;;;;20788193;28;20061;-74
2022/04/03 06:23:17;;;;;;;3.83;1.65;;;;;;;;;;20799389;28;20042;-76
2022/04/03 06:33:19;;;;;;;5.90;2.40;;;;;;;;;;20789348;28;20056;-77
2022/04/03 06:43:22;;;;;;;6.90;2.70;;;;;;;;;;20774873;28;20097;-67
2022/04/03 06:53:25;;;;;;;4.47;1.55;;;;;;;;;;20778721;28;20452;-74
2022/04/03 07:03:27;;;;;;;11.77;1.98;;;;;;;;;;20765609;28;20076;-65
2022/04/03 07:13:31;;;;;;;7.88;4.00;;;;;;;;;;20768928;28;20496;-66
2022/04/03 07:23:35;;;;;;;4.55;2.00;;;;;;;;;;20769959;28;20065;-67
2022/04/03 07:33:38;;;;;;;5.65;2.05;;;;;;;;;;20765302;28;20536;-71
2022/04/03 07:43:40;;;;;;;3.70;1.80;;;;;;;;;;20762884;28;20057;-73
2022/04/03 07:53:43;;;;;;;4.85;1.63;;;;;;;;;;20767729;28;20068;-66
2022/04/03 08:03:45;;;;;;;3.42;0.88;;;;;;;;;;20766696;28;20100;-67
2022/04/03 08:13:48;;;;;;;1.42;0.60;;;;;;;;;;20768565;28;20053;-69
2022/04/03 08:23:51;;;;;;;1.75;0.73;;;;;;;;;;20778984;28;20081;-65
2022/04/03 08:33:53;;;;;;;1.02;0.70;;;;;;;;;;20774678;28;20050;-70
2022/04/03 08:43:55;;;;;;;3.13;0.70;;;;;;;;;;20770719;28;20552;-65
2022/04/03 08:53:58;;;;;;;1.27;0.60;;;;;;;;;;20763400;28;20402;-67
2022/04/03 09:04:01;;;;;;;1.52;0.52;;;;;;;;;;20762553;28;20133;-66
2022/04/03 09:14:11;;;;;;;1.88;0.57;;;;;;;;;;20762795;28;20076;-69
2022/04/03 09:24:13;;;;;;;0.90;0.70;;;;;;;;;;20764920;28;20045;-72
2022/04/03 09:34:17;;;;;;;0.88;0.70;;;;;;;;;;20769883;28;20053;-75
2022/04/03 09:44:24;;;;;;;1.30;0.70;;;;;;;;;;20770066;28;20050;-75
2022/04/03 09:54:26;;;;;;;0.88;0.50;;;;;;;;;;20766698;28;20050;-63
2022/04/03 10:04:33;;;;;;;0.85;0.50;;;;;;;;;;20759439;28;20077;-61
2022/04/03 10:14:39;;;;;;;0.82;0.50;;;;;;;;;;20759508;28;20486;-59
2022/04/03 10:24:44;;;;;;;0.93;0.50;;;;;;;;;;20759303;28;20441;-61
2022/04/03 10:34:49;;;;;;;1.10;0.60;;;;;;;;;;20759270;28;20628;-61
2022/04/03 10:45:10;;;;;;;0.95;0.57;;;;;;;;;;20755349;28;20054;-60
2022/04/03 10:55:29;;;;;;;3.22;0.60;;;;;;;;;;20755652;28;20110;-60
2022/04/03 11:05:31;;;;;;;1.02;0.60;;;;;;;;;;20758985;28;20104;-61
2022/04/03 11:15:43;;;;;;;0.38;0.38;;;;;;;;;;20754745;28;20454;-61
2022/04/03 11:25:46;;;;;;;0.60;0.40;;;;;;;;;;20751933;28;20046;-61
2022/04/03 11:35:48;;;;;;;1.80;0.40;;;;;;;;;;20748804;28;20056;-60
2022/04/03 11:45:55;;;;;;;3.45;0.60;;;;;;;;;;20746797;28;20140;-57
2022/04/03 11:56:04;;;;;;;0.82;0.50;;;;;;;;;;20747170;28;20057;-71
2022/04/03 12:06:24;;;;;;;0.70;0.40;;;;;;;;;;20747731;28;20445;-67
2022/04/03 12:16:27;;;;;;;0.70;0.50;;;;;;;;;;20747119;28;20049;-70
2022/04/03 12:26:30;;;;;;;0.77;0.50;;;;;;;;;;20745857;28;20057;-67
2022/04/03 12:36:40;;;;;;;1.00;0.50;;;;;;;;;;20744123;28;20046;-70
2022/04/03 12:46:42;;;;;;;0.80;0.50;;;;;;;;;;20750111;28;20500;-67
2022/04/03 13:07:10;;;;;;;1.80;0.60;;;;;;;;;;20759864;28;20054;-66
2022/04/03 13:17:13;;;;;;;1.83;0.50;;;;;;;;;;20758047;28;20054;-66
2022/04/03 13:27:16;;;;;;;1.20;0.60;;;;;;;;;;20757153;28;20054;-66
2022/04/03 13:37:18;;;;;;;0.60;0.40;;;;;;;;;;20755531;28;20049;-66
2022/04/03 13:47:21;;;;;;;1.10;0.60;;;;;;;;;;20756242;28;20528;-67
2022/04/03 13:57:24;;;;;;;1.10;0.55;;;;;;;;;;20754453;28;20061;-66
2022/04/03 14:07:26;;;;;;;1.83;0.60;;;;;;;;;;20754626;28;20136;-65
2022/04/03 14:17:28;;;;;;;1.00;0.60;;;;;;;;;;20753910;28;20399;-66
2022/04/03 14:27:31;;;;;;;2.65;0.60;;;;;;;;;;20753850;28;20054;-65
2022/04/03 14:37:33;;;;;;;3.03;0.60;;;;;;;;;;20752384;28;20053;-64
2022/04/03 14:47:36;;;;;;;0.50;0.40;;;;;;;;;;20752460;28;20486;-65
2022/04/03 14:57:39;;;;;;;0.70;0.52;;;;;;;;;;20750416;28;20053;-65
2022/04/03 15:07:41;;;;;;;1.58;0.70;;;;;;;;;;20748092;28;20052;-67
2022/04/03 15:17:44;;;;;;;1.70;0.90;;;;;;;;;;20750924;28;20054;-68
2022/04/03 15:27:47;;;;;;;1.40;0.70;;;;;;;;;;20749375;28;20457;-70
2022/04/03 15:37:51;;;;;;;0.93;0.50;;;;;;;;;;20748042;28;20410;-70
2022/04/03 15:47:52;;;;;;;1.05;0.73;;;;;;;;;;20748498;28;20053;-68
2022/04/03 15:57:53;;;;;;;1.42;0.50;;;;;;;;;;20746045;28;20085;-65
2022/04/03 16:07:55;;;;;;;1.42;0.73;;;;;;;;;;20745685;28;20076;-68
2022/04/03 16:17:57;;;;;;;1.92;0.93;;;;;;;;;;20745848;28;20088;-67
2022/04/03 16:27:58;;;;;;;0.98;0.40;;;;;;;;;;20761930;28;20046;-64
2022/04/03 16:37:59;;;;;;;0.45;0.40;;;;;;;;;;20762493;28;20092;-67
2022/04/03 16:48:04;;;;;;;0.68;0.40;;;;;;;;;;20761959;28;20101;-68
2022/04/03 16:58:06;;;;;;;1.80;0.70;;;;;;;;;;20760829;28;20050;-66
2022/04/03 17:08:08;;;;;;;0.85;0.55;;;;;;;;;;20759987;28;20123;-69
2022/04/03 17:18:10;;;;;;;1.10;0.50;;;;;;;;;;20758688;28;20042;-67
2022/04/03 17:28:12;;;;;;;2.03;0.70;;;;;;;;;;20757789;28;20140;-71
2022/04/03 17:38:15;;;;;;;1.95;0.82;;;;;;;;;;20755332;28;20501;-70
2022/04/03 17:48:17;;;;;;;1.27;0.50;;;;;;;;;;20756319;28;20050;-67
2022/04/03 17:58:20;;;;;;;3.40;0.70;;;;;;;;;;20755491;28;20514;-67
2022/04/03 18:08:23;;;;;;;1.95;0.70;;;;;;;;;;20755037;28;20054;-69
2022/04/03 18:18:25;;;;;;;2.17;0.70;;;;;;;;;;20755565;28;20085;-67
2022/04/03 18:28:28;;;;;;;2.40;1.45;;;;;;;;;;20753773;28;20084;-69
2022/04/03 18:38:33;;;;;;;1.80;0.90;;;;;;;;;;20752805;28;20100;-72
2022/04/03 18:48:35;;;;;;;2.23;1.00;;;;;;;;;;20750063;28;20090;-67
2022/04/03 18:58:37;;;;;;;2.38;1.00;;;;;;;;;;20753157;28;20358;-71
2022/04/03 19:08:39;;;;;;;3.88;1.08;;;;;;;;;;20751254;28;20085;-69
2022/04/03 19:18:45;;;;;;;3.42;1.73;;;;;;;;;;20753878;28;20490;-69
2022/04/03 19:28:48;;;;;;;7.43;1.17;;;;;;;;;;20767400;28;20077;-67
2022/04/03 19:38:50;;;;;;;4.60;1.08;;;;;;;;;;20763826;28;20457;-65
2022/04/03 19:48:53;;;;;;;2.53;1.10;;;;;;;;;;20751849;28;20085;-68
2022/04/03 19:58:55;;;;;;;2.45;1.00;;;;;;;;;;20761287;28;20049;-66
2022/04/03 20:08:57;;;;;;;2.53;1.00;;;;;;;;;;20772819;28;20045;-67
2022/04/03 20:18:59;;;;;;;2.92;1.30;;;;;;;;;;20771708;28;20049;-66
2022/04/03 20:29:01;;;;;;;5.55;1.23;;;;;;;;;;20770366;28;20065;-72
2022/04/03 20:39:05;;;;;;;2.30;1.10;;;;;;;;;;20765963;28;20497;-66
2022/04/03 20:49:08;;;;;;;2.20;1.33;;;;;;;;;;20763846;28;20081;-70
2022/04/03 20:59:10;;;;;;;2.15;1.50;;;;;;;;;;20762705;28;20096;-66
2022/04/03 21:09:12;;;;;;;4.88;1.20;;;;;;;;;;20765470;28;20065;-67
2022/04/03 21:19:15;;;;;;;2.42;1.00;;;;;;;;;;20762570;28;20046;-65
2022/04/03 21:29:17;;;;;;;3.40;1.17;;;;;;;;;;20761382;28;20054;-67
2022/04/03 21:39:19;;;;;;;2.25;0.93;;;;;;;;;;20770125;28;20076;-68
2022/04/03 21:49:21;;;;;;;5.35;1.20;;;;;;;;;;20762784;28;20410;-66
2022/04/03 21:59:23;;;;;;;4.10;1.20;;;;;;;;;;20759228;28;20395;-68
2022/04/03 22:09:26;;;;;;;3.42;1.10;;;;;;;;;;20756991;28;20046;-66
2022/04/03 22:19:28;;;;;;;4.07;1.30;;;;;;;;;;20763584;28;20049;-69
2022/04/03 22:29:30;;;;;;;3.33;1.23;;;;;;;;;;20762024;28;20049;-66
2022/04/03 22:39:33;;;;;;;3.40;1.25;;;;;;;;;;20754461;28;20053;-65
2022/04/03 22:49:35;;;;;;;5.32;1.10;;;;;;;;;;20754142;28;20061;-65
2022/04/03 22:59:37;;;;;;;3.28;1.40;;;;;;;;;;20755535;28;20141;-68
2022/04/03 23:09:39;;;;;;;3.40;1.38;;;;;;;;;;20759104;28;20417;-67
2022/04/03 23:19:41;;;;;;;2.15;1.35;;;;;;;;;;20763342;28;20050;-70
2022/04/03 23:29:43;;;;;;;2.88;1.35;;;;;;;;;;20756930;28;20141;-65
2022/04/03 23:39:45;;;;;;;3.83;1.52;;;;;;;;;;20754973;28;20502;-67
2022/04/03 23:49:48;;;;;;;4.22;1.70;;;;;;;;;;20758026;28;20085;-66
2022/04/03 23:59:52;;;;;;;4.95;1.55;;;;;;;;;;20749467;28;20557;-67
